Time;durP1;ratioP1;P1;durP2;ratioP2;P2;SDS_P1;SDS_P2;PMS_P1;PMS_P2;Temp;Humidity;BMP_temperature;BMP_pressure;BME280_temperature;BME280_humidity;BME280_pressure;Samples;Min_cycle;Max_cycle;Signal;HPM_P1;HPM_P2
2021/06/28 00:03:04;;;;;;;1.67;1.42;;;23.40;69.90;;;;;;10159534;28;20034;-50
2021/06/28 00:07:54;;;;;;;4.32;1.77;;;23.50;69.70;;;;;;10171341;28;20036;-53
2021/06/28 00:12:46;;;;;;;4.07;1.83;;;23.40;69.80;;;;;;10157152;28;20264;-51
2021/06/28 00:17:36;;;;;;;2.40;1.70;;;23.30;69.90;;;;;;10153325;28;20091;-52
2021/06/28 00:22:27;;;;;;;3.15;1.73;;;23.20;70.00;;;;;;10136522;28;20028;-51
2021/06/28 00:27:22;;;;;;;2.85;1.77;;;23.20;70.00;;;;;;10153571;28;20298;-52
2021/06/28 00:32:13;;;;;;;3.70;2.28;;;23.00;70.10;;;;;;10160071;28;20414;-51
2021/06/28 00:37:04;;;;;;;2.90;1.60;;;23.00;70.20;;;;;;10157097;28;20038;-52
2021/06/28 00:41:54;;;;;;;3.08;1.83;;;23.10;70.00;;;;;;10152208;28;20059;-54
2021/06/28 00:46:45;;;;;;;2.40;1.50;;;23.10;69.90;;;;;;10148707;28;20423;-54
2021/06/28 00:51:36;;;;;;;1.50;1.35;;;23.10;70.00;;;;;;10176409;28;20469;-53
2021/06/28 00:56:26;;;;;;;1.70;1.50;;;23.20;70.00;;;;;;10159273;28;20075;-55
2021/06/28 01:01:17;;;;;;;1.80;1.60;;;23.20;69.90;;;;;;10160191;28;20264;-54
2021/06/28 01:06:11;;;;;;;2.20;1.73;;;23.10;69.80;;;;;;10160967;28;20430;-51
2021/06/28 01:11:02;;;;;;;2.15;1.60;;;23.10;70.00;;;;;;10161653;28;20501;-56
2021/06/28 01:15:54;;;;;;;2.42;1.55;;;23.00;70.00;;;;;;10171000;28;20032;-49
2021/06/28 01:20:45;;;;;;;2.63;2.20;;;22.90;70.20;;;;;;10157425;28;20048;-56
2021/06/28 01:25:36;;;;;;;2.05;1.60;;;22.90;70.10;;;;;;10143191;28;20040;-52
2021/06/28 01:30:29;;;;;;;2.13;1.67;;;22.90;70.30;;;;;;10161243;28;20031;-50
2021/06/28 01:35:20;;;;;;;1.35;1.25;;;22.80;70.40;;;;;;10165350;28;20473;-54
2021/06/28 01:40:12;;;;;;;3.75;1.83;;;22.80;70.50;;;;;;10156067;28;20028;-48
2021/06/28 01:45:09;;;;;;;2.33;1.48;;;22.80;70.20;;;;;;10158977;28;20048;-51
2021/06/28 01:49:59;;;;;;;1.67;1.33;;;22.80;70.30;;;;;;10141874;28;20052;-52
2021/06/28 01:54:50;;;;;;;1.80;1.10;;;22.80;70.60;;;;;;10160903;28;20039;-55
2021/06/28 01:59:41;;;;;;;2.22;1.63;;;22.70;70.40;;;;;;10172656;28;20093;-52
2021/06/28 02:04:33;;;;;;;2.63;1.45;;;22.70;71.20;;;;;;10158401;28;20124;-53
2021/06/28 02:09:24;;;;;;;1.52;1.35;;;22.60;70.60;;;;;;10163504;28;20025;-51
2021/06/28 02:14:15;;;;;;;1.83;1.58;;;22.70;70.50;;;;;;10159447;28;20048;-52
2021/06/28 02:19:06;;;;;;;2.90;1.70;;;22.60;70.50;;;;;;10166758;28;20101;-54
2021/06/28 02:23:56;;;;;;;2.03;1.83;;;22.60;70.70;;;;;;10161125;28;20066;-51
2021/06/28 02:28:48;;;;;;;2.17;1.60;;;22.50;71.00;;;;;;10160184;28;20027;-57
2021/06/28 02:33:40;;;;;;;1.80;1.70;;;22.50;71.10;;;;;;10137905;28;20127;-55
2021/06/28 02:38:32;;;;;;;2.80;1.77;;;22.40;71.50;;;;;;10166965;28;20289;-54
2021/06/28 02:43:23;;;;;;;3.00;1.73;;;22.40;71.50;;;;;;10161901;28;20122;-51
2021/06/28 02:48:13;;;;;;;2.22;1.70;;;22.40;71.70;;;;;;10160613;28;20020;-55
2021/06/28 02:53:04;;;;;;;2.33;1.42;;;22.40;71.90;;;;;;10159297;28;20206;-54
2021/06/28 02:57:56;;;;;;;1.90;1.30;;;22.20;72.40;;;;;;10142922;28;20082;-54
2021/06/28 03:02:47;;;;;;;2.13;1.45;;;22.20;72.40;;;;;;10162817;28;20089;-53
2021/06/28 03:07:38;;;;;;;2.03;1.48;;;22.20;72.30;;;;;;10156694;28;20032;-54
2021/06/28 03:12:29;;;;;;;2.90;1.83;;;22.20;72.40;;;;;;10154650;28;20027;-52
2021/06/28 03:17:20;;;;;;;1.75;1.33;;;22.10;72.50;;;;;;10158351;28;20036;-55
2021/06/28 03:22:10;;;;;;;2.80;1.70;;;22.10;72.70;;;;;;10167898;28;20028;-53
2021/06/28 03:27:01;;;;;;;1.95;1.67;;;22.00;72.80;;;;;;10162015;28;20063;-51
2021/06/28 03:31:52;;;;;;;1.88;1.67;;;22.00;72.90;;;;;;10139023;28;20039;-54
2021/06/28 03:36:42;;;;;;;2.92;2.10;;;21.90;73.10;;;;;;10160166;28;20044;-53
2021/06/28 03:41:33;;;;;;;1.63;1.52;;;21.90;73.40;;;;;;10168164;28;20036;-58
2021/06/28 03:46:24;;;;;;;2.42;1.67;;;21.90;73.90;;;;;;10160506;28;20302;-52
2021/06/28 03:51:14;;;;;;;2.28;1.80;;;22.00;73.30;;;;;;10154751;28;20074;-53
2021/06/28 03:56:08;;;;;;;2.60;1.90;;;22.00;73.50;;;;;;10152186;28;20125;-50
2021/06/28 04:00:58;;;;;;;3.05;1.92;;;21.90;73.40;;;;;;10143070;28;20048;-51
2021/06/28 04:05:49;;;;;;;1.90;1.60;;;21.90;73.50;;;;;;10173155;28;20038;-52
2021/06/28 04:10:40;;;;;;;2.50;1.75;;;22.00;73.50;;;;;;10154558;28;20033;-52
2021/06/28 04:15:31;;;;;;;5.18;2.00;;;22.10;73.50;;;;;;10152052;28;20067;-50
2021/06/28 04:20:24;;;;;;;2.92;2.10;;;22.10;73.50;;;;;;10135703;28;20024;-53
2021/06/28 04:25:18;;;;;;;2.05;1.85;;;22.10;73.70;;;;;;10187416;28;20024;-55
2021/06/28 04:30:10;;;;;;;3.63;2.42;;;22.10;74.00;;;;;;10157893;28;20028;-52
2021/06/28 04:35:04;;;;;;;4.65;2.88;;;22.10;74.30;;;;;;10158005;28;20066;-51
2021/06/28 04:39:54;;;;;;;2.83;2.63;;;22.10;74.50;;;;;;10161139;28;20036;-48
2021/06/28 04:44:45;;;;;;;4.00;2.40;;;22.00;74.70;;;;;;10150649;28;20032;-52
2021/06/28 04:49:36;;;;;;;3.78;2.40;;;22.00;75.10;;;;;;10167524;28;20036;-53
2021/06/28 04:54:26;;;;;;;3.85;2.50;;;21.90;75.30;;;;;;10163372;28;20430;-54
2021/06/28 04:59:17;;;;;;;3.00;2.42;;;21.90;75.70;;;;;;10155966;28;20587;-50
2021/06/28 05:04:08;;;;;;;5.43;2.80;;;21.90;75.50;;;;;;10152437;28;20103;-50
2021/06/28 05:08:58;;;;;;;3.35;2.38;;;21.90;76.00;;;;;;10169559;28;20028;-50
2021/06/28 05:13:49;;;;;;;2.35;2.05;;;21.90;75.80;;;;;;10163585;28;20426;-51
2021/06/28 05:18:40;;;;;;;3.38;2.25;;;22.10;75.90;;;;;;10151563;28;20025;-54
2021/06/28 05:23:30;;;;;;;3.28;2.03;;;22.30;75.40;;;;;;10139508;28;20039;-54
2021/06/28 05:28:22;;;;;;;3.35;2.03;;;22.20;75.60;;;;;;10167165;28;20046;-56
2021/06/28 05:33:12;;;;;;;3.00;2.45;;;22.30;75.80;;;;;;10166020;28;20036;-50
2021/06/28 05:38:03;;;;;;;4.13;2.53;;;22.10;76.10;;;;;;10155547;28;20044;-53
2021/06/28 05:42:53;;;;;;;4.57;2.58;;;22.10;76.20;;;;;;10155722;28;20202;-52
2021/06/28 05:47:44;;;;;;;2.97;2.30;;;22.10;76.10;;;;;;10152688;28;20036;-52
2021/06/28 05:52:35;;;;;;;4.63;2.75;;;22.20;76.00;;;;;;10142634;28;20068;-48
2021/06/28 05:57:26;;;;;;;3.05;2.25;;;22.20;76.00;;;;;;10161925;28;20121;-52
2021/06/28 06:02:18;;;;;;;4.60;2.35;;;22.30;75.80;;;;;;10161236;28;20545;-52
2021/06/28 06:07:10;;;;;;;4.32;2.13;;;22.40;75.80;;;;;;10153642;28;20039;-49
2021/06/28 06:12:00;;;;;;;4.68;3.53;;;22.70;75.40;;;;;;10158510;28;20040;-51
2021/06/28 06:16:51;;;;;;;4.43;2.80;;;22.90;75.30;;;;;;10161577;28;20043;-55
2021/06/28 06:21:43;;;;;;;3.33;2.75;;;23.00;75.00;;;;;;10157794;28;20028;-52
2021/06/28 06:26:33;;;;;;;3.53;2.63;;;22.90;75.30;;;;;;10140433;28;20449;-48
2021/06/28 06:31:24;;;;;;;2.95;2.10;;;22.90;75.60;;;;;;10169899;28;20035;-54
2021/06/28 06:36:15;;;;;;;4.22;2.00;;;23.00;75.30;;;;;;10163323;28;20044;-56
2021/06/28 06:41:06;;;;;;;3.97;2.42;;;23.00;75.30;;;;;;10163461;28;20067;-55
2021/06/28 06:45:57;;;;;;;4.57;1.98;;;23.10;75.10;;;;;;10165030;28;20562;-55
2021/06/28 06:50:48;;;;;;;7.28;2.53;;;23.20;74.50;;;;;;10164616;28;20032;-51
2021/06/28 06:55:38;;;;;;;2.35;2.15;;;23.30;74.30;;;;;;10161699;28;20040;-55
2021/06/28 07:00:29;;;;;;;2.80;2.08;;;23.70;74.30;;;;;;10162081;28;20231;-54
2021/06/28 07:05:20;;;;;;;3.80;2.50;;;23.90;73.00;;;;;;10163575;28;20546;-53
2021/06/28 07:10:13;;;;;;;2.63;2.15;;;24.00;72.70;;;;;;10164080;28;20492;-52
2021/06/28 07:15:05;;;;;;;5.05;2.22;;;24.10;72.40;;;;;;10160996;28;20557;-53
2021/06/28 07:19:56;;;;;;;3.20;2.17;;;24.00;72.50;;;;;;10162278;28;20443;-53
2021/06/28 07:24:47;;;;;;;2.03;1.83;;;23.70;72.60;;;;;;10161564;28;20052;-56
2021/06/28 07:29:39;;;;;;;3.45;2.08;;;23.40;73.00;;;;;;10134028;28;20436;-54
2021/06/28 07:34:30;;;;;;;3.38;2.20;;;23.40;73.30;;;;;;10141707;28;20054;-52
2021/06/28 07:39:20;;;;;;;5.03;2.10;;;23.40;73.20;;;;;;10161317;28;20089;-55
2021/06/28 07:44:11;;;;;;;5.22;3.15;;;23.40;73.20;;;;;;10162301;28;20086;-55
2021/06/28 07:49:03;;;;;;;3.97;3.00;;;23.10;73.70;;;;;;10163770;28;20498;-54
2021/06/28 07:53:54;;;;;;;5.35;2.70;;;23.30;73.70;;;;;;10162182;28;20028;-53
2021/06/28 07:58:47;;;;;;;6.32;2.88;;;23.40;73.50;;;;;;10163713;28;20444;-57
2021/06/28 08:03:43;;;;;;;3.97;3.00;;;23.40;73.70;;;;;;10140413;28;20160;-55
2021/06/28 08:08:34;;;;;;;5.28;3.78;;;23.30;73.90;;;;;;10145014;28;20120;-56
2021/06/28 08:13:25;;;;;;;5.28;3.13;;;23.50;73.60;;;;;;10154158;28;20029;-56
2021/06/28 08:18:15;;;;;;;4.78;2.63;;;23.80;73.30;;;;;;10153352;28;20047;-54
2021/06/28 08:23:06;;;;;;;5.47;3.80;;;24.00;73.20;;;;;;10138236;28;20031;-58
2021/06/28 08:27:57;;;;;;;4.82;3.25;;;24.10;73.20;;;;;;10154967;28;20032;-56
2021/06/28 08:32:48;;;;;;;5.88;3.20;;;24.30;73.40;;;;;;10153383;28;20399;-56
2021/06/28 08:37:38;;;;;;;5.40;3.65;;;24.50;73.20;;;;;;10165503;28;20094;-51
2021/06/28 08:42:29;;;;;;;6.10;3.38;;;24.50;73.10;;;;;;10158832;28;20050;-53
2021/06/28 08:47:21;;;;;;;4.03;3.17;;;24.60;72.80;;;;;;10161298;28;20028;-55
2021/06/28 08:52:11;;;;;;;6.85;3.28;;;24.70;72.20;;;;;;10158505;28;20036;-55
2021/06/28 08:57:02;;;;;;;3.85;3.03;;;24.70;72.20;;;;;;10157447;28;20121;-53
2021/06/28 09:01:54;;;;;;;4.03;2.83;;;24.70;71.90;;;;;;10176952;28;20024;-53
2021/06/28 09:06:47;;;;;;;5.45;2.83;;;24.70;71.60;;;;;;10156771;28;20032;-54
2021/06/28 09:11:50;;;;;;;4.55;3.03;;;24.90;70.90;;;;;;10152883;28;20024;-52
2021/06/28 09:16:44;;;;;;;3.33;2.20;;;24.90;70.10;;;;;;10148572;28;20040;-54
2021/06/28 09:21:45;;;;;;;2.75;2.53;;;25.10;69.60;;;;;;10158856;28;20524;-52
2021/06/28 09:26:37;;;;;;;4.25;3.05;;;25.00;69.40;;;;;;10150345;28;20638;-53
2021/06/28 09:31:43;;;;;;;5.40;2.47;;;25.20;68.60;;;;;;10161960;28;20032;-54
2021/06/28 09:36:42;;;;;;;2.25;1.98;;;25.10;68.30;;;;;;10150206;28;20039;-54
2021/06/28 09:41:34;;;;;;;4.70;2.08;;;25.20;67.70;;;;;;10154614;28;20028;-57
2021/06/28 09:46:25;;;;;;;2.53;2.30;;;25.30;67.20;;;;;;10166170;28;20028;-56
2021/06/28 09:51:25;;;;;;;8.02;4.55;;;25.60;66.30;;;;;;10161515;28;20306;-55
2021/06/28 09:56:35;;;;;;;4.45;2.70;;;25.70;65.20;;;;;;10139639;28;20040;-54
2021/06/28 10:01:26;;;;;;;3.92;2.55;;;25.60;65.80;;;;;;10138300;28;20364;-53
2021/06/28 10:11:20;;;;;;;5.03;2.90;;;25.80;64.70;;;;;;10163137;28;20749;-56
2021/06/28 10:16:11;;;;;;;4.75;2.95;;;25.90;64.30;;;;;;10154723;28;20081;-58
2021/06/28 10:21:02;;;;;;;4.03;2.42;;;26.00;64.10;;;;;;10159709;28;20069;-52
2021/06/28 10:25:52;;;;;;;7.90;2.78;;;25.90;64.00;;;;;;10165352;28;20036;-57
2021/06/28 10:30:43;;;;;;;4.50;3.53;;;26.10;63.50;;;;;;10158083;28;20036;-55
2021/06/28 10:35:37;;;;;;;5.22;3.10;;;26.40;62.70;;;;;;10157892;28;20079;-54
2021/06/28 10:40:42;;;;;;;8.30;3.72;;;26.50;62.50;;;;;;10158898;28;20445;-55
2021/06/28 10:45:44;;;;;;;3.53;2.30;;;26.40;62.20;;;;;;10150732;28;20028;-55
2021/06/28 10:50:56;;;;;;;4.78;2.67;;;26.40;62.10;;;;;;10164883;28;20032;-57
2021/06/28 10:55:47;;;;;;;4.60;2.90;;;26.40;61.60;;;;;;10156895;28;20125;-56
2021/06/28 11:01:01;;;;;;;5.20;2.92;;;26.60;61.60;;;;;;10152197;28;20336;-53
2021/06/28 11:06:24;;;;;;;5.53;2.60;;;26.80;61.00;;;;;;10155273;28;20038;-55
2021/06/28 11:11:44;;;;;;;5.10;3.22;;;26.90;60.40;;;;;;10156949;28;20032;-55
2021/06/28 11:16:34;;;;;;;3.13;2.72;;;27.10;60.10;;;;;;10162453;28;20123;-55
2021/06/28 11:21:41;;;;;;;2.53;2.33;;;27.40;60.10;;;;;;10139214;28;20054;-54
2021/06/28 11:26:34;;;;;;;5.28;2.88;;;27.80;59.00;;;;;;10141386;28;20098;-51
2021/06/28 11:31:30;;;;;;;2.60;2.20;;;28.30;58.50;;;;;;10164040;28;20293;-56
2021/06/28 11:36:23;;;;;;;3.75;2.53;;;28.50;58.00;;;;;;10141834;28;20456;-55
2021/06/28 11:41:16;;;;;;;3.28;2.67;;;28.70;57.80;;;;;;10156057;28;20035;-57
2021/06/28 11:46:23;;;;;;;2.63;2.43;;;29.00;57.20;;;;;;10158916;28;20332;-55
2021/06/28 11:51:21;;;;;;;2.28;2.05;;;29.30;56.90;;;;;;10161198;28;20035;-56
2021/06/28 11:56:20;;;;;;;3.10;2.00;;;29.30;56.40;;;;;;10156818;28;20036;-55
2021/06/28 12:01:11;;;;;;;2.80;2.58;;;29.50;55.70;;;;;;10153495;28;20451;-57
2021/06/28 12:06:07;;;;;;;3.67;1.88;;;29.30;55.50;;;;;;10146950;28;20067;-57
2021/06/28 12:11:00;;;;;;;4.88;2.78;;;29.80;54.50;;;;;;10161896;28;20101;-57
2021/06/28 12:15:51;;;;;;;3.97;2.50;;;29.60;54.50;;;;;;10161343;28;20154;-52
2021/06/28 12:20:42;;;;;;;4.75;2.45;;;29.60;54.40;;;;;;10151998;28;20024;-56
2021/06/28 12:25:32;;;;;;;2.63;2.28;;;29.30;54.40;;;;;;10152547;28;20032;-56
2021/06/28 12:30:23;;;;;;;2.72;2.17;;;29.20;54.50;;;;;;10152350;28;20058;-57
2021/06/28 12:35:21;;;;;;;2.88;2.63;;;29.00;55.20;;;;;;10152915;28;20093;-57
2021/06/28 12:40:15;;;;;;;3.92;2.50;;;28.90;55.20;;;;;;10157854;28;20028;-56
2021/06/28 12:45:06;;;;;;;3.28;2.42;;;29.00;54.90;;;;;;10157984;28;20043;-54
2021/06/28 12:49:58;;;;;;;3.22;2.45;;;29.20;54.50;;;;;;10156725;28;20145;-56
2021/06/28 12:55:22;;;;;;;5.43;2.33;;;29.60;53.30;;;;;;10135664;28;20048;-56
2021/06/28 13:00:25;;;;;;;2.30;1.98;;;30.70;52.60;;;;;;10144686;28;20052;-58
2021/06/28 13:05:15;;;;;;;1.85;1.70;;;32.20;50.40;;;;;;10155190;28;20043;-58
2021/06/28 13:10:08;;;;;;;4.45;2.22;;;32.00;50.80;;;;;;10151218;28;20028;-55
2021/06/28 13:15:26;;;;;;;2.85;2.55;;;31.80;50.80;;;;;;10146096;28;20048;-54
2021/06/28 13:20:20;;;;;;;2.30;2.00;;;32.80;48.70;;;;;;10156529;28;20593;-55
2021/06/28 13:25:31;;;;;;;2.17;1.90;;;33.60;47.50;;;;;;10158427;28;20508;-57
2021/06/28 13:30:24;;;;;;;3.72;1.73;;;34.20;46.00;;;;;;10153534;28;20510;-55
2021/06/28 13:35:31;;;;;;;3.50;2.03;;;35.70;44.60;;;;;;10147782;28;20052;-57
2021/06/28 13:40:22;;;;;;;4.50;1.95;;;35.40;42.70;;;;;;10160727;28;20488;-57
2021/06/28 13:45:18;;;;;;;3.22;2.13;;;35.60;43.10;;;;;;10158517;28;20076;-55
2021/06/28 13:50:14;;;;;;;5.47;2.45;;;35.60;42.90;;;;;;10152037;28;20029;-60
2021/06/28 13:55:05;;;;;;;2.17;1.95;;;36.30;41.70;;;;;;10147783;28;20052;-57
2021/06/28 13:59:56;;;;;;;1.75;1.58;;;36.40;41.00;;;;;;10145811;28;20037;-57
2021/06/28 14:04:47;;;;;;;;;;;36.50;40.50;;;;;;10168808;28;20645;-56
2021/06/28 14:09:37;;;;;;;2.77;2.50;;;36.90;39.70;;;;;;10165916;28;19908;-58
2021/06/28 14:14:30;;;;;;;1.92;1.80;;;37.40;40.00;;;;;;10161277;28;20531;-56
2021/06/28 14:19:21;;;;;;;2.47;1.77;;;36.80;39.90;;;;;;10160021;28;20275;-55
2021/06/28 14:24:11;;;;;;;;;;;36.80;39.80;;;;;;10151249;28;20282;-56
2021/06/28 14:29:02;;;;;;;1.87;1.60;;;37.40;37.80;;;;;;10171239;28;19908;-55
2021/06/28 14:33:53;;;;;;;4.75;2.10;;;36.90;39.60;;;;;;10164008;28;20048;-54
2021/06/28 14:38:43;;;;;;;2.43;2.10;;;36.30;40.30;;;;;;10169701;28;20461;-56
2021/06/28 14:43:34;;;;;;;4.50;2.78;;;34.30;42.50;;;;;;10166162;28;20024;-57
2021/06/28 14:48:25;;;;;;;4.32;2.65;;;32.90;44.20;;;;;;10164192;28;20067;-54
2021/06/28 14:53:16;;;;;;;2.67;2.22;;;31.90;45.60;;;;;;10163318;28;20116;-54
2021/06/28 14:58:07;;;;;;;5.13;2.63;;;31.50;46.50;;;;;;10164788;28;20117;-54
2021/06/28 15:02:57;;;;;;;2.95;2.58;;;31.00;47.30;;;;;;10161238;28;20728;-57
2021/06/28 15:07:48;;;;;;;5.45;3.10;;;30.70;48.00;;;;;;10162922;28;20098;-53
2021/06/28 15:12:39;;;;;;;2.72;2.45;;;30.30;48.90;;;;;;10161475;28;20114;-56
2021/06/28 15:17:30;;;;;;;6.70;4.05;;;30.20;49.60;;;;;;10160528;28;20040;-56
2021/06/28 15:22:20;;;;;;;3.50;2.70;;;30.50;49.40;;;;;;10163126;28;20031;-58
2021/06/28 15:27:11;;;;;;;3.15;2.80;;;30.50;49.20;;;;;;10163566;28;20050;-57
2021/06/28 15:32:04;;;;;;;3.08;2.72;;;30.20;49.80;;;;;;10162221;28;20024;-58
2021/06/28 15:36:54;;;;;;;3.30;2.40;;;29.70;50.80;;;;;;10161367;28;20068;-57
2021/06/28 15:41:45;;;;;;;2.95;2.55;;;29.40;51.30;;;;;;10147174;28;20474;-58
2021/06/28 15:46:36;;;;;;;3.25;2.55;;;29.20;51.40;;;;;;10154089;28;20025;-57
2021/06/28 15:51:26;;;;;;;2.97;2.47;;;29.00;51.70;;;;;;10163005;28;20020;-56
2021/06/28 15:56:17;;;;;;;6.13;2.97;;;28.90;52.00;;;;;;10158225;28;20060;-55
2021/06/28 16:01:08;;;;;;;3.40;2.70;;;28.90;51.90;;;;;;10153447;28;20029;-56
2021/06/28 16:05:58;;;;;;;2.97;2.20;;;28.70;52.00;;;;;;10133998;28;20044;-56
2021/06/28 16:10:49;;;;;;;1.67;1.45;;;28.50;52.00;;;;;;10140230;28;20043;-58
2021/06/28 16:15:40;;;;;;;1.90;1.80;;;28.30;51.90;;;;;;10159890;28;20047;-55
2021/06/28 16:20:31;;;;;;;2.20;1.55;;;28.10;50.60;;;;;;10155742;28;20032;-57
2021/06/28 16:25:22;;;;;;;2.53;1.60;;;28.00;49.90;;;;;;10159231;28;20054;-57
2021/06/28 16:30:13;;;;;;;2.58;1.42;;;27.80;49.60;;;;;;10156654;28;20082;-58
2021/06/28 16:35:04;;;;;;;1.80;1.70;;;27.70;49.60;;;;;;10161571;28;20042;-56
2021/06/28 16:39:55;;;;;;;3.97;1.98;;;27.70;49.40;;;;;;10159929;28;20036;-59
2021/06/28 16:44:45;;;;;;;2.30;1.25;;;27.40;49.70;;;;;;10159521;28;20032;-53
2021/06/28 16:49:36;;;;;;;3.42;1.48;;;27.40;49.60;;;;;;10159400;28;20028;-56
2021/06/28 16:54:27;;;;;;;4.85;1.45;;;27.10;49.00;;;;;;10160341;28;20479;-55
2021/06/28 16:59:17;;;;;;;1.80;1.38;;;26.80;49.40;;;;;;10159156;28;20575;-55
2021/06/28 17:04:08;;;;;;;2.65;1.20;;;26.10;50.50;;;;;;10155510;28;20038;-56
2021/06/28 17:08:59;;;;;;;3.00;1.27;;;25.90;51.40;;;;;;10154429;28;20109;-56
2021/06/28 17:13:50;;;;;;;1.73;1.30;;;25.80;51.80;;;;;;10163787;28;20020;-55
2021/06/28 17:18:41;;;;;;;1.85;1.35;;;25.80;52.00;;;;;;10161611;28;20616;-55
2021/06/28 17:23:32;;;;;;;2.92;1.88;;;26.00;52.10;;;;;;10162936;28;20025;-57
2021/06/28 17:28:23;;;;;;;2.13;1.60;;;26.30;51.90;;;;;;10160400;28;20358;-67
2021/06/28 17:33:13;;;;;;;3.28;2.10;;;26.20;52.20;;;;;;10160780;28;20036;-58
2021/06/28 17:38:04;;;;;;;4.38;2.25;;;26.20;52.40;;;;;;10170402;28;20048;-55
2021/06/28 17:42:55;;;;;;;2.60;1.70;;;26.00;53.00;;;;;;10173766;28;20040;-54
2021/06/28 17:47:46;;;;;;;2.38;1.58;;;26.00;53.30;;;;;;10170893;28;20024;-59
2021/06/28 17:52:37;;;;;;;3.13;1.90;;;25.80;53.80;;;;;;10169758;28;20063;-57
2021/06/28 17:57:28;;;;;;;3.20;1.40;;;25.60;54.30;;;;;;10166676;28;20537;-58
2021/06/28 18:02:19;;;;;;;2.53;1.60;;;25.50;54.60;;;;;;10168138;28;20152;-56
2021/06/28 18:07:11;;;;;;;2.03;1.50;;;25.60;54.40;;;;;;10165040;28;20555;-53
2021/06/28 18:12:03;;;;;;;2.45;1.42;;;25.60;54.30;;;;;;10146021;28;20020;-55
2021/06/28 18:16:54;;;;;;;2.13;1.60;;;25.70;54.30;;;;;;10153918;28;20122;-57
2021/06/28 18:21:44;;;;;;;5.75;2.53;;;25.50;54.50;;;;;;10168700;28;20568;-55
2021/06/28 18:26:35;;;;;;;4.97;2.03;;;25.50;54.70;;;;;;10146914;28;20465;-55
2021/06/28 18:31:26;;;;;;;2.90;1.83;;;25.20;55.90;;;;;;10151979;28;20028;-58
2021/06/28 18:36:16;;;;;;;4.93;2.10;;;25.00;56.40;;;;;;10143030;28;20044;-59
2021/06/28 18:41:07;;;;;;;2.53;1.45;;;24.70;57.60;;;;;;10177871;28;20091;-57
2021/06/28 18:46:03;;;;;;;4.10;2.40;;;24.70;57.80;;;;;;10174372;28;20024;-57
2021/06/28 18:50:56;;;;;;;2.97;1.88;;;24.50;58.90;;;;;;10150887;28;20024;-57
2021/06/28 18:55:49;;;;;;;3.00;1.80;;;24.60;58.70;;;;;;10168318;28;20043;-55
2021/06/28 19:00:40;;;;;;;4.32;2.30;;;24.50;59.20;;;;;;10166943;28;20081;-58
2021/06/28 19:05:30;;;;;;;7.05;3.00;;;24.40;60.10;;;;;;10167186;28;20032;-54
2021/06/28 19:10:21;;;;;;;3.85;2.42;;;24.30;60.50;;;;;;10158453;28;20198;-54
2021/06/28 19:15:13;;;;;;;2.85;1.70;;;24.20;61.30;;;;;;10158509;28;20044;-57
2021/06/28 19:20:04;;;;;;;2.92;2.28;;;24.10;61.80;;;;;;10158865;28;20021;-55
2021/06/28 19:24:55;;;;;;;3.30;2.00;;;24.00;62.60;;;;;;10155657;28;20036;-57
2021/06/28 19:29:46;;;;;;;2.38;1.88;;;23.90;63.10;;;;;;10162138;28;20021;-57
2021/06/28 19:34:36;;;;;;;3.95;2.40;;;23.90;63.40;;;;;;10160839;28;20074;-58
2021/06/28 19:39:27;;;;;;;2.25;2.03;;;23.70;64.40;;;;;;10157702;28;20028;-58
2021/06/28 19:44:18;;;;;;;2.70;1.95;;;23.60;64.90;;;;;;10155715;28;20035;-57
2021/06/28 19:49:08;;;;;;;3.53;2.50;;;23.60;65.30;;;;;;10162840;28;20032;-56
2021/06/28 19:53:59;;;;;;;2.22;1.92;;;23.60;65.40;;;;;;10157562;28;20046;-55
2021/06/28 19:58:50;;;;;;;4.53;2.22;;;23.70;65.40;;;;;;10164319;28;20071;-57
2021/06/28 20:03:41;;;;;;;2.67;1.92;;;23.60;65.90;;;;;;10167098;28;20032;-58
2021/06/28 20:08:31;;;;;;;2.10;1.70;;;23.50;66.40;;;;;;10148358;28;20489;-59
2021/06/28 20:13:23;;;;;;;3.17;1.42;;;23.50;67.10;;;;;;10166289;28;20036;-57
2021/06/28 20:18:13;;;;;;;2.38;1.67;;;23.50;66.30;;;;;;10161791;28;20511;-57
2021/06/28 20:23:04;;;;;;;5.05;2.10;;;23.40;66.30;;;;;;10158404;28;20097;-56
2021/06/28 20:27:55;;;;;;;2.72;2.15;;;23.50;66.30;;;;;;10166138;28;20466;-57
2021/06/28 20:32:45;;;;;;;1.70;1.55;;;23.50;66.30;;;;;;10160862;28;20032;-57
2021/06/28 20:37:36;;;;;;;3.15;1.73;;;23.40;66.60;;;;;;10163433;28;20642;-57
2021/06/28 20:42:28;;;;;;;4.00;2.10;;;23.30;67.00;;;;;;10153552;28;20036;-58
2021/06/28 20:47:19;;;;;;;6.65;2.40;;;23.10;68.00;;;;;;10153492;28;20461;-57
2021/06/28 20:52:09;;;;;;;3.90;2.85;;;22.90;68.40;;;;;;10169507;28;20038;-57
2021/06/28 20:57:00;;;;;;;4.18;2.20;;;23.00;68.30;;;;;;10162387;28;20302;-57
2021/06/28 21:01:53;;;;;;;4.35;2.20;;;23.00;68.90;;;;;;10162527;28;20490;-56
2021/06/28 21:06:44;;;;;;;3.22;2.17;;;23.00;69.10;;;;;;10153666;28;20032;-56
2021/06/28 21:11:35;;;;;;;5.57;2.50;;;23.20;68.80;;;;;;10155237;28;20057;-55
2021/06/28 21:16:25;;;;;;;4.15;2.95;;;23.30;68.80;;;;;;10169531;28;20039;-55
2021/06/28 21:21:16;;;;;;;3.50;2.15;;;23.20;69.20;;;;;;10174471;28;20036;-57
2021/06/28 21:26:07;;;;;;;3.58;2.35;;;22.90;69.90;;;;;;10160780;28;20039;-57
2021/06/28 21:30:57;;;;;;;2.83;2.25;;;22.90;70.30;;;;;;10145038;28;20040;-57
2021/06/28 21:35:48;;;;;;;4.43;2.40;;;22.80;70.50;;;;;;10174790;28;20047;-57
2021/06/28 21:40:39;;;;;;;2.45;2.15;;;22.90;70.60;;;;;;10168563;28;20017;-55
2021/06/28 21:45:30;;;;;;;7.32;4.13;;;22.90;70.80;;;;;;10161956;28;20036;-57
2021/06/28 21:50:21;;;;;;;4.82;1.92;;;22.70;71.30;;;;;;10164073;28;20016;-57
2021/06/28 21:55:12;;;;;;;2.95;2.03;;;22.60;71.50;;;;;;10156619;28;20075;-56
2021/06/28 22:00:19;;;;;;;5.13;2.25;;;22.50;71.80;;;;;;10149252;28;20062;-55
2021/06/28 22:05:11;;;;;;;2.40;2.20;;;22.50;72.40;;;;;;10143293;28;20139;-58
2021/06/28 22:10:02;;;;;;;2.75;2.10;;;22.30;72.50;;;;;;10156068;28;20103;-55
2021/06/28 22:14:53;;;;;;;2.75;2.40;;;22.20;72.90;;;;;;10153688;28;20113;-56
2021/06/28 22:19:44;;;;;;;4.25;2.42;;;22.00;73.30;;;;;;10164391;28;20047;-55
2021/06/28 22:24:36;;;;;;;2.72;2.22;;;22.00;73.40;;;;;;10162352;28;20490;-52
2021/06/28 22:29:27;;;;;;;3.92;1.95;;;21.80;73.60;;;;;;10162032;28;20270;-56
2021/06/28 22:34:18;;;;;;;3.30;2.15;;;21.70;74.20;;;;;;10152475;28;20122;-55
2021/06/28 22:39:10;;;;;;;3.42;2.80;;;21.60;74.90;;;;;;10164793;28;20036;-53
2021/06/28 22:44:01;;;;;;;5.18;2.22;;;21.60;75.10;;;;;;10163467;28;20036;-55
2021/06/28 22:48:52;;;;;;;2.47;2.13;;;21.40;76.60;;;;;;10146291;28;20027;-55
2021/06/28 22:53:42;;;;;;;3.60;2.08;;;21.60;75.70;;;;;;10158473;28;20032;-54
2021/06/28 22:58:33;;;;;;;3.08;1.85;;;21.60;76.00;;;;;;10158607;28;20040;-56
2021/06/28 23:03:24;;;;;;;3.67;2.97;;;21.30;76.60;;;;;;10165014;28;20028;-55
2021/06/28 23:08:15;;;;;;;3.92;2.58;;;21.40;77.00;;;;;;10159890;28;20687;-52
2021/06/28 23:13:06;;;;;;;3.78;2.60;;;21.40;77.10;;;;;;10156015;28;20032;-54
2021/06/28 23:17:56;;;;;;;4.05;2.53;;;21.30;77.60;;;;;;10156826;28;20429;-54
2021/06/28 23:22:47;;;;;;;3.65;2.17;;;21.40;77.70;;;;;;10161243;28;20032;-54
2021/06/28 23:27:38;;;;;;;3.53;2.42;;;21.40;77.70;;;;;;10162324;28;20028;-56
2021/06/28 23:32:28;;;;;;;3.65;2.20;;;21.20;78.00;;;;;;10157525;28;20085;-57
2021/06/28 23:37:19;;;;;;;3.75;2.40;;;21.20;78.10;;;;;;10157707;28;20048;-55
2021/06/28 23:42:10;;;;;;;4.95;2.45;;;21.20;78.30;;;;;;10155178;28;20065;-54
2021/06/28 23:47:00;;;;;;;3.70;2.67;;;21.00;78.90;;;;;;10163264;28;20070;-55
2021/06/28 23:51:52;;;;;;;2.50;2.15;;;21.00;79.10;;;;;;10160894;28;20373;-54
2021/06/28 23:56:43;;;;;;;8.18;5.32;;;20.90;79.10;;;;;;10155816;28;20058;-53
